createdAt,value
2023-03-17T00:01:22.382Z,5.60
2023-03-17T00:03:51.833Z,4.93
2023-03-17T00:06:24.628Z,5.30
2023-03-17T00:08:53.127Z,4.63
2023-03-17T00:11:22.254Z,4.73
2023-03-17T00:13:51.188Z,4.80
2023-03-17T00:16:20.752Z,6.20
2023-03-17T00:18:51.133Z,5.57
2023-03-17T00:21:23.310Z,4.50
2023-03-17T00:23:52.802Z,5.17
2023-03-17T00:26:21.284Z,4.30
2023-03-17T00:28:51.107Z,5.07
2023-03-17T00:31:21.112Z,3.83
2023-03-17T00:33:52.211Z,5.13
2023-03-17T00:36:22.621Z,3.93
2023-03-17T00:38:52.642Z,3.40
2023-03-17T00:41:21.299Z,5.50
2023-03-17T00:43:49.774Z,3.83
2023-03-17T00:46:19.818Z,3.73
2023-03-17T00:48:48.628Z,5.23
2023-03-17T00:51:18.428Z,5.27
2023-03-17T00:53:46.930Z,4.20
2023-03-17T00:56:16.153Z,3.53
2023-03-17T00:58:44.762Z,5.57
2023-03-17T01:01:13.577Z,5.17
2023-03-17T01:03:42.010Z,4.67
2023-03-17T01:06:11.987Z,6.13
2023-03-17T01:08:42.524Z,5.37
2023-03-17T01:11:16.140Z,4.27
2023-03-17T01:13:44.838Z,3.90
2023-03-17T01:16:13.546Z,4.57
2023-03-17T01:18:41.999Z,4.53
2023-03-17T01:21:10.596Z,5.50
2023-03-17T01:23:39.054Z,5.77
2023-03-17T01:26:08.910Z,4.83
2023-03-17T01:28:37.982Z,4.57
2023-03-17T01:31:06.578Z,4.80
2023-03-17T01:33:35.178Z,4.63
2023-03-17T01:36:03.687Z,4.40
2023-03-17T01:38:32.583Z,5.20
2023-03-17T01:41:03.400Z,6.20
2023-03-17T01:43:33.296Z,5.70
2023-03-17T01:46:20.788Z,7.90
2023-03-17T01:48:53.017Z,6.17
2023-03-17T01:51:24.707Z,9.40
2023-03-17T01:53:53.983Z,8.20
2023-03-17T01:56:23.236Z,6.97
2023-03-17T01:58:54.604Z,7.77
2023-03-17T02:01:25.256Z,7.73
2023-03-17T02:03:54.637Z,8.00
2023-03-17T02:06:23.184Z,7.23
2023-03-17T02:08:52.134Z,8.80
2023-03-17T02:11:21.075Z,8.60
2023-03-17T02:13:49.505Z,8.23
2023-03-17T02:16:19.694Z,9.47
2023-03-17T02:18:48.125Z,10.03
2023-03-17T02:21:35.286Z,8.20
2023-03-17T02:24:07.458Z,9.27
2023-03-17T02:26:37.108Z,9.20
2023-03-17T02:29:06.592Z,8.27
2023-03-17T02:31:35.997Z,10.40
2023-03-17T02:34:04.836Z,11.43
2023-03-17T02:36:33.264Z,10.37
2023-03-17T02:39:02.525Z,9.90
2023-03-17T02:41:32.345Z,12.60
2023-03-17T02:44:00.735Z,11.07
2023-03-17T02:46:29.233Z,11.57
2023-03-17T02:48:57.837Z,9.90
2023-03-17T02:51:26.199Z,11.77
2023-03-17T02:53:54.588Z,10.20
2023-03-17T02:56:23.026Z,9.87
2023-03-17T02:58:52.806Z,10.50
2023-03-17T03:01:21.320Z,8.80
2023-03-17T03:03:50.070Z,10.60
2023-03-17T03:06:18.755Z,10.97
2023-03-17T03:08:47.144Z,10.47
2023-03-17T03:11:15.554Z,10.40
2023-03-17T03:13:43.936Z,10.87
2023-03-17T03:16:13.792Z,12.67
2023-03-17T03:18:42.285Z,14.57
2023-03-17T03:21:10.814Z,11.97
2023-03-17T03:23:39.193Z,13.30
2023-03-17T03:26:07.789Z,11.67
2023-03-17T03:28:36.483Z,10.67
2023-03-17T03:31:05.247Z,11.33
2023-03-17T03:33:35.494Z,9.67
2023-03-17T03:36:04.128Z,13.00
2023-03-17T03:38:32.785Z,10.03
2023-03-17T03:41:01.550Z,9.63
2023-03-17T03:43:29.975Z,10.17
2023-03-17T03:45:58.366Z,10.57
2023-03-17T03:48:26.776Z,10.03
2023-03-17T03:50:59.131Z,9.83
2023-03-17T03:53:27.849Z,9.73
2023-03-17T03:55:56.446Z,9.63
2023-03-17T03:58:24.982Z,10.87
2023-03-17T04:00:53.387Z,9.20
2023-03-17T04:03:21.779Z,11.07
2023-03-17T04:05:50.324Z,10.40
2023-03-17T04:08:20.139Z,10.53
2023-03-17T04:10:48.696Z,10.93
2023-03-17T04:13:17.106Z,9.00
2023-03-17T04:15:45.629Z,10.60
2023-03-17T04:18:14.008Z,10.17
2023-03-17T04:20:42.443Z,11.63
2023-03-17T04:23:11.262Z,9.77
2023-03-17T04:25:41.044Z,13.63
2023-03-17T04:28:10.358Z,10.33
2023-03-17T04:30:38.821Z,11.50
2023-03-17T04:33:07.289Z,10.87
2023-03-17T04:35:35.839Z,10.13
2023-03-17T04:38:04.308Z,10.47
2023-03-17T04:40:33.023Z,12.30
2023-03-17T04:43:03.615Z,11.43
2023-03-17T04:45:32.658Z,10.43
2023-03-17T04:48:01.040Z,11.47
2023-03-17T04:50:29.743Z,14.70
2023-03-17T04:52:58.302Z,10.70
2023-03-17T04:55:27.559Z,11.50
2023-03-17T04:57:56.045Z,10.87
2023-03-17T05:00:25.992Z,12.03
2023-03-17T05:02:54.768Z,11.60
2023-03-17T05:05:23.142Z,11.63
2023-03-17T05:07:51.622Z,12.90
2023-03-17T05:10:20.120Z,11.60
2023-03-17T05:12:48.529Z,11.93
2023-03-17T05:15:17.065Z,12.53
2023-03-17T05:17:46.845Z,13.43
2023-03-17T05:20:15.667Z,13.73
2023-03-17T05:22:44.112Z,13.33
2023-03-17T05:25:12.503Z,11.53
2023-03-17T05:27:41.552Z,12.70
2023-03-17T05:30:10.701Z,12.47
2023-03-17T05:32:39.191Z,12.30
2023-03-17T05:35:09.596Z,11.27
2023-03-17T05:37:38.069Z,12.77
2023-03-17T05:40:08.303Z,11.93
2023-03-17T05:42:36.708Z,12.60
2023-03-17T05:45:05.775Z,10.83
2023-03-17T05:47:34.510Z,13.27
2023-03-17T05:50:03.107Z,11.77
2023-03-17T05:52:33.114Z,11.80
2023-03-17T05:55:01.515Z,12.20
2023-03-17T05:57:30.215Z,14.17
2023-03-17T05:59:58.741Z,12.40
2023-03-17T06:02:27.228Z,12.80
2023-03-17T06:04:55.837Z,13.13
2023-03-17T06:07:24.273Z,15.40
2023-03-17T06:09:54.068Z,15.33
2023-03-17T06:12:22.474Z,17.07
2023-03-17T06:14:50.946Z,15.63
2023-03-17T06:17:19.504Z,16.83
2023-03-17T06:19:49.478Z,16.10
2023-03-17T06:22:18.016Z,16.33
2023-03-17T06:24:46.378Z,16.57
2023-03-17T06:27:16.252Z,16.93
2023-03-17T06:29:44.683Z,16.33
2023-03-17T06:32:20.470Z,17.70
2023-03-17T06:34:49.354Z,16.83
2023-03-17T06:37:17.744Z,16.50
2023-03-17T06:39:46.343Z,16.90
2023-03-17T06:42:16.517Z,19.33
2023-03-17T06:44:44.986Z,19.57
2023-03-17T06:47:13.518Z,21.40
2023-03-17T06:49:42.096Z,21.57
2023-03-17T06:52:10.652Z,18.73
2023-03-17T06:54:39.071Z,20.10
2023-03-17T06:57:08.262Z,20.70
2023-03-17T06:59:38.181Z,19.80
2023-03-17T07:02:06.723Z,23.40
2023-03-17T07:04:37.604Z,21.80
2023-03-17T07:07:06.303Z,20.87
2023-03-17T07:09:35.472Z,21.70
2023-03-17T07:12:05.083Z,19.97
2023-03-17T07:14:35.610Z,23.23
2023-03-17T07:17:06.207Z,21.47
2023-03-17T07:19:35.113Z,22.20
2023-03-17T07:22:03.539Z,19.83
2023-03-17T07:24:31.969Z,18.43
2023-03-17T07:27:00.443Z,18.87
2023-03-17T07:29:29.341Z,17.83
2023-03-17T07:31:57.882Z,16.20
2023-03-17T07:34:28.257Z,12.00
2023-03-17T07:36:56.739Z,6.50
2023-03-17T07:39:25.191Z,6.53
2023-03-17T07:41:55.337Z,8.83
2023-03-17T07:44:24.011Z,10.40
2023-03-17T07:46:52.664Z,14.37
2023-03-17T07:49:38.188Z,15.37
2023-03-17T07:52:10.405Z,17.40
2023-03-17T07:54:42.216Z,17.97
2023-03-17T07:57:11.572Z,15.33
2023-03-17T07:59:41.636Z,18.10
2023-03-17T08:02:13.367Z,16.10
2023-03-17T08:04:41.942Z,16.10
2023-03-17T08:07:12.819Z,17.73
2023-03-17T08:09:41.821Z,12.63
2023-03-17T08:12:10.598Z,12.90
2023-03-17T08:14:38.995Z,15.17
2023-03-17T08:17:07.762Z,18.80
2023-03-17T08:19:36.209Z,14.30
2023-03-17T08:22:04.649Z,18.17
2023-03-17T08:24:34.502Z,16.37
2023-03-17T08:27:03.000Z,13.90
2023-03-17T08:29:31.412Z,12.50
2023-03-17T08:31:59.798Z,12.67
2023-03-17T08:34:28.296Z,11.03
2023-03-17T08:36:56.678Z,10.67
2023-03-17T08:39:25.610Z,12.03
2023-03-17T08:41:55.712Z,10.70
2023-03-17T08:44:24.309Z,11.07
2023-03-17T08:46:52.992Z,11.20
2023-03-17T08:49:21.662Z,11.80
2023-03-17T08:51:50.132Z,14.17
2023-03-17T08:54:18.669Z,13.67
2023-03-17T08:56:47.077Z,12.47
2023-03-17T08:59:17.110Z,11.60
2023-03-17T09:01:46.049Z,14.47
2023-03-17T09:04:15.417Z,10.47
2023-03-17T09:07:01.333Z,18.10
2023-03-17T09:09:32.156Z,17.00
2023-03-17T09:12:00.594Z,14.83
2023-03-17T09:14:37.330Z,14.83
2023-03-17T09:17:11.264Z,11.67
2023-03-17T09:19:40.477Z,16.80
2023-03-17T09:22:09.029Z,29.73
2023-03-17T09:24:37.528Z,22.77
2023-03-17T09:27:06.225Z,13.37
2023-03-17T09:29:36.198Z,15.30
2023-03-17T09:32:04.597Z,13.27
2023-03-17T09:34:33.104Z,31.33
2023-03-17T09:37:01.501Z,30.40
2023-03-17T09:39:29.914Z,20.43
2023-03-17T09:42:19.686Z,14.43
2023-03-17T09:44:58.906Z,13.80
2023-03-17T09:47:36.621Z,28.57
2023-03-17T09:50:06.327Z,33.10
2023-03-17T09:52:36.318Z,24.40
2023-03-17T09:55:05.284Z,16.30
2023-03-17T09:57:35.637Z,12.47
2023-03-17T10:00:07.835Z,26.07
2023-03-17T10:02:38.242Z,35.67
2023-03-17T10:05:12.581Z,24.67
2023-03-17T10:07:43.954Z,14.37
2023-03-17T10:10:16.741Z,12.80
2023-03-17T10:12:48.047Z,30.00
2023-03-17T10:15:20.064Z,40.83
2023-03-17T10:17:48.569Z,27.03
2023-03-17T10:20:19.348Z,16.20
2023-03-17T10:22:49.127Z,11.00
2023-03-17T10:25:19.307Z,25.97
2023-03-17T10:27:51.099Z,36.43
2023-03-17T10:30:23.456Z,22.83
2023-03-17T10:32:52.925Z,15.03
2023-03-17T10:35:23.010Z,28.13
2023-03-17T10:37:58.914Z,37.10
2023-03-17T10:40:33.621Z,29.23
2023-03-17T10:43:03.831Z,18.23
2023-03-17T10:45:34.577Z,12.27
2023-03-17T10:48:04.365Z,27.80
2023-03-17T10:50:34.354Z,29.60
2023-03-17T10:53:07.954Z,19.40
2023-03-17T10:55:42.596Z,13.50
2023-03-17T10:58:17.008Z,31.17
2023-03-17T11:00:56.784Z,32.07
2023-03-17T11:03:26.588Z,22.40
2023-03-17T11:05:58.506Z,23.63
2023-03-17T11:08:27.369Z,35.87
2023-03-17T11:10:57.732Z,31.13
2023-03-17T11:13:31.266Z,17.57
2023-03-17T11:16:07.367Z,36.03
2023-03-17T11:18:37.856Z,36.80
2023-03-17T11:21:08.799Z,21.13
2023-03-17T11:23:49.011Z,29.00
2023-03-17T11:26:27.914Z,36.00
2023-03-17T11:29:00.173Z,25.57
2023-03-17T11:31:31.131Z,25.67
2023-03-17T11:34:05.326Z,37.63
2023-03-17T11:36:39.256Z,28.37
2023-03-17T11:39:12.696Z,18.87
2023-03-17T11:41:46.034Z,36.10
2023-03-17T11:44:21.148Z,34.50
2023-03-17T11:46:54.010Z,23.87
2023-03-17T11:49:24.274Z,34.60
2023-03-17T11:51:59.249Z,36.43
2023-03-17T11:54:32.602Z,25.20
2023-03-17T11:57:02.973Z,24.17
2023-03-17T11:59:36.205Z,28.97
2023-03-17T12:02:08.686Z,24.90
2023-03-17T12:04:39.249Z,25.83
2023-03-17T12:07:15.407Z,44.97
2023-03-17T12:09:45.910Z,35.47
2023-03-17T12:12:17.043Z,20.00
2023-03-17T12:14:48.762Z,37.53
2023-03-17T12:17:21.591Z,33.97
2023-03-17T12:19:58.409Z,25.90
2023-03-17T12:22:30.629Z,29.33
2023-03-17T12:25:05.843Z,40.57
2023-03-17T12:27:35.960Z,27.93
2023-03-17T12:30:08.161Z,31.13
2023-03-17T12:32:41.927Z,33.60
2023-03-17T12:35:20.546Z,29.07
2023-03-17T12:37:51.576Z,43.87
2023-03-17T12:40:21.981Z,65.03
2023-03-17T12:42:53.682Z,68.03
2023-03-17T12:45:31.438Z,69.97
2023-03-17T12:48:12.608Z,65.63
2023-03-17T12:50:51.785Z,50.20
2023-03-17T12:53:26.639Z,29.73
2023-03-17T12:55:56.833Z,43.53
2023-03-17T12:58:29.998Z,53.03
2023-03-17T13:01:01.961Z,43.30
2023-03-17T13:03:33.491Z,46.00
2023-03-17T13:06:03.495Z,33.80
2023-03-17T13:08:33.511Z,32.47
2023-03-17T13:11:18.648Z,56.53
2023-03-17T13:13:49.728Z,59.53
2023-03-17T13:16:28.509Z,36.77
2023-03-17T13:19:14.700Z,56.47
2023-03-17T13:21:46.471Z,57.93
2023-03-17T13:24:22.507Z,33.63
2023-03-17T13:27:01.728Z,54.00
2023-03-17T13:29:44.397Z,48.37
2023-03-17T13:32:31.609Z,34.47
2023-03-17T13:35:16.804Z,46.17
2023-03-17T13:37:53.511Z,35.07
2023-03-17T13:40:23.194Z,40.97
2023-03-17T13:43:09.955Z,47.90
2023-03-17T13:45:39.962Z,34.27
2023-03-17T13:48:28.467Z,48.37
2023-03-17T13:51:02.164Z,45.83
2023-03-17T13:53:31.741Z,37.77
2023-03-17T13:56:11.935Z,54.27
2023-03-17T13:58:52.827Z,49.17
2023-03-17T14:01:21.736Z,34.67
2023-03-17T14:03:51.616Z,36.73
2023-03-17T14:06:23.183Z,46.90
2023-03-17T14:08:53.804Z,34.43
2023-03-17T14:11:25.980Z,32.13
2023-03-17T14:13:57.509Z,50.67
2023-03-17T14:16:28.542Z,46.47
2023-03-17T14:19:00.237Z,29.70
2023-03-17T14:21:33.776Z,33.37
2023-03-17T14:24:02.786Z,40.23
2023-03-17T14:26:32.250Z,29.17
2023-03-17T14:29:01.212Z,29.30
2023-03-17T14:31:30.489Z,46.43
2023-03-17T14:33:59.861Z,40.73
2023-03-17T14:36:29.048Z,24.67
2023-03-17T14:38:59.081Z,39.73
2023-03-17T14:41:28.299Z,39.33
2023-03-17T14:43:59.455Z,31.70
2023-03-17T14:46:29.078Z,21.70
2023-03-17T14:48:59.544Z,32.03
2023-03-17T14:51:30.534Z,44.37
2023-03-17T14:54:01.770Z,41.43
2023-03-17T14:56:33.241Z,28.63
2023-03-17T14:59:06.453Z,27.80
2023-03-17T15:01:36.316Z,42.83
2023-03-17T15:04:09.120Z,39.00
2023-03-17T15:06:37.772Z,29.70
2023-03-17T15:09:18.767Z,23.23
2023-03-17T15:11:48.097Z,32.37
2023-03-17T15:14:21.111Z,42.20
2023-03-17T15:16:50.815Z,38.13
2023-03-17T15:19:21.350Z,25.83
2023-03-17T15:21:49.976Z,35.30
2023-03-17T15:24:24.280Z,70.30
2023-03-17T15:26:52.684Z,103.13
2023-03-17T15:29:21.075Z,82.10
2023-03-17T15:31:49.517Z,39.63
2023-03-17T15:34:17.972Z,60.17
2023-03-17T15:36:47.595Z,107.27
2023-03-17T15:39:16.437Z,105.30
2023-03-17T15:41:46.304Z,48.13
2023-03-17T15:44:14.765Z,40.90
2023-03-17T15:46:43.196Z,83.97
2023-03-17T15:49:12.552Z,112.83
2023-03-17T15:51:41.095Z,69.77
2023-03-17T15:54:13.429Z,43.73
2023-03-17T15:56:43.199Z,63.30
2023-03-17T15:59:13.092Z,91.07
2023-03-17T16:01:42.037Z,68.27
2023-03-17T16:04:10.791Z,35.30
2023-03-17T16:06:39.240Z,47.30
2023-03-17T16:09:08.231Z,84.30
2023-03-17T16:11:37.265Z,96.37
2023-03-17T16:14:06.342Z,63.37
2023-03-17T16:16:38.418Z,36.00
2023-03-17T16:19:09.134Z,52.73
2023-03-17T16:21:38.254Z,80.97
2023-03-17T16:24:07.648Z,68.93
2023-03-17T16:26:36.028Z,42.20
2023-03-17T16:29:06.212Z,54.70
2023-03-17T16:31:36.973Z,61.83
2023-03-17T16:34:05.423Z,44.97
2023-03-17T16:36:33.813Z,35.93
2023-03-17T16:39:02.254Z,54.27
2023-03-17T16:41:30.739Z,51.37
2023-03-17T16:44:00.353Z,31.40
2023-03-17T16:46:29.817Z,43.33
2023-03-17T16:48:59.585Z,44.83
2023-03-17T16:51:28.022Z,26.00
2023-03-17T16:53:56.438Z,31.13
2023-03-17T16:56:26.522Z,41.87
2023-03-17T16:58:54.958Z,31.47
2023-03-17T17:01:24.295Z,28.13
2023-03-17T17:03:52.697Z,43.07
2023-03-17T17:06:23.264Z,39.30
2023-03-17T17:08:52.372Z,30.43
2023-03-17T17:11:21.803Z,40.07
2023-03-17T17:13:51.744Z,36.03
2023-03-17T17:16:23.084Z,31.17
2023-03-17T17:18:51.522Z,32.57
2023-03-17T17:21:19.904Z,21.60
2023-03-17T17:23:52.354Z,24.63
2023-03-17T17:26:21.364Z,25.83
2023-03-17T17:28:49.771Z,19.67
2023-03-17T17:31:18.283Z,20.70
2023-03-17T17:33:46.704Z,23.30
2023-03-17T17:36:16.379Z,21.20
2023-03-17T17:38:44.861Z,29.30
2023-03-17T17:41:16.999Z,41.20
2023-03-17T17:43:47.262Z,39.00
2023-03-17T17:46:17.516Z,35.77
2023-03-17T17:48:46.045Z,28.43
2023-03-17T17:51:14.445Z,24.37
2023-03-17T17:53:42.853Z,22.87
2023-03-17T17:56:15.410Z,18.20
2023-03-17T17:58:44.303Z,14.00
2023-03-17T18:01:14.187Z,12.73
2023-03-17T18:03:43.180Z,10.90
2023-03-17T18:06:12.850Z,10.07
2023-03-17T18:08:43.508Z,7.60
2023-03-17T18:11:12.265Z,7.87
2023-03-17T18:13:42.089Z,6.97
2023-03-17T18:16:10.839Z,5.97
2023-03-17T18:18:42.344Z,5.70
2023-03-17T18:21:11.048Z,5.23
2023-03-17T18:23:39.587Z,6.30
2023-03-17T18:26:08.704Z,4.70
2023-03-17T18:28:37.076Z,4.03
2023-03-17T18:31:09.594Z,5.07
2023-03-17T18:33:38.483Z,4.13
2023-03-17T18:36:07.160Z,4.87
2023-03-17T18:38:36.039Z,4.23
2023-03-17T18:41:04.580Z,4.20
2023-03-17T18:43:32.997Z,4.10
2023-03-17T18:46:01.549Z,3.83
2023-03-17T18:48:31.378Z,3.80
2023-03-17T18:50:59.792Z,4.80
2023-03-17T18:53:30.050Z,3.67
2023-03-17T18:55:59.383Z,4.73
2023-03-17T18:58:28.860Z,3.00
2023-03-17T19:00:59.825Z,3.23
2023-03-17T19:03:28.551Z,3.27
2023-03-17T19:05:58.409Z,3.17
2023-03-17T19:08:26.845Z,3.27
2023-03-17T19:10:55.205Z,3.10
2023-03-17T19:13:23.596Z,3.47
2023-03-17T19:15:52.358Z,3.10
2023-03-17T19:18:20.727Z,5.63
2023-03-17T19:20:49.132Z,3.73
2023-03-17T19:23:20.143Z,5.10
2023-03-17T19:25:49.853Z,9.33
2023-03-17T19:28:18.564Z,6.53
2023-03-17T19:30:47.134Z,7.90
2023-03-17T19:33:16.352Z,8.87
2023-03-17T19:35:45.195Z,9.20
2023-03-17T19:38:13.885Z,9.00
2023-03-17T19:40:43.801Z,9.50
2023-03-17T19:43:12.164Z,9.33
2023-03-17T19:45:40.598Z,9.33
2023-03-17T19:48:09.027Z,9.47
2023-03-17T19:50:37.444Z,8.80
2023-03-17T19:53:06.364Z,7.23
2023-03-17T19:55:34.800Z,8.50
2023-03-17T19:58:05.789Z,8.90
2023-03-17T20:00:34.582Z,8.83
2023-03-17T20:03:02.983Z,8.47
2023-03-17T20:05:31.364Z,8.57
2023-03-17T20:07:59.767Z,11.07
2023-03-17T20:10:28.186Z,14.77
2023-03-17T20:12:56.863Z,17.83
2023-03-17T20:15:26.680Z,18.50
2023-03-17T20:17:55.054Z,19.30
2023-03-17T20:20:23.476Z,18.60
2023-03-17T20:22:51.915Z,16.63
2023-03-17T20:25:20.550Z,14.80
2023-03-17T20:27:49.041Z,13.67
2023-03-17T20:30:17.596Z,11.67
2023-03-17T20:32:48.301Z,10.70
2023-03-17T20:35:16.755Z,9.57
2023-03-17T20:37:45.816Z,9.90
2023-03-17T20:40:15.187Z,8.00
2023-03-17T20:42:43.575Z,6.87
2023-03-17T20:45:12.010Z,6.37
2023-03-17T20:47:40.383Z,7.13
2023-03-17T20:50:10.672Z,5.93
2023-03-17T20:52:39.813Z,5.13
2023-03-17T20:55:09.287Z,4.97
2023-03-17T20:57:38.040Z,4.53
2023-03-17T21:00:08.230Z,5.00
2023-03-17T21:02:36.735Z,5.47
2023-03-17T21:05:05.325Z,4.37
2023-03-17T21:07:35.177Z,4.10
2023-03-17T21:10:03.616Z,3.80
2023-03-17T21:12:32.127Z,4.70
2023-03-17T21:15:00.758Z,3.67
2023-03-17T21:17:29.337Z,3.83
2023-03-17T21:19:57.736Z,3.67
2023-03-17T21:22:26.201Z,5.13
2023-03-17T21:24:55.959Z,6.33
2023-03-17T21:27:24.408Z,7.03
2023-03-17T21:29:52.805Z,8.07
2023-03-17T21:32:21.198Z,9.13
2023-03-17T21:34:49.613Z,10.17
2023-03-17T21:37:18.880Z,8.70
2023-03-17T21:39:47.545Z,9.40
2023-03-17T21:42:17.315Z,9.13
2023-03-17T21:44:48.327Z,12.57
2023-03-17T21:47:16.809Z,9.00
2023-03-17T21:49:45.204Z,8.47
2023-03-17T21:52:14.987Z,7.03
2023-03-17T21:54:43.680Z,7.43
2023-03-17T21:57:13.412Z,8.50
2023-03-17T21:59:43.227Z,6.17
2023-03-17T22:02:12.779Z,6.27
2023-03-17T22:04:41.691Z,6.93
2023-03-17T22:07:10.161Z,5.70
2023-03-17T22:09:38.821Z,6.87
2023-03-17T22:12:07.936Z,6.60
2023-03-17T22:14:36.493Z,8.03
2023-03-17T22:17:06.381Z,8.97
2023-03-17T22:19:34.779Z,9.70
2023-03-17T22:22:03.750Z,9.30
2023-03-17T22:24:32.477Z,11.03
2023-03-17T22:27:00.872Z,10.77
2023-03-17T22:29:29.321Z,10.50
2023-03-17T22:31:57.781Z,13.20
2023-03-17T22:34:27.607Z,13.27
2023-03-17T22:36:56.647Z,13.80
2023-03-17T22:39:25.448Z,16.70
2023-03-17T22:41:53.847Z,14.77
2023-03-17T22:44:22.303Z,14.90
2023-03-17T22:46:50.694Z,16.20
2023-03-17T22:49:19.085Z,17.83
2023-03-17T22:51:50.229Z,17.20
2023-03-17T22:54:19.135Z,18.13
2023-03-17T22:56:48.490Z,18.90
2023-03-17T22:59:16.901Z,18.57
2023-03-17T23:01:45.903Z,20.97
2023-03-17T23:04:14.635Z,17.50
2023-03-17T23:06:43.473Z,18.37
2023-03-17T23:09:13.282Z,18.70
2023-03-17T23:11:42.351Z,18.50
2023-03-17T23:14:11.360Z,19.80
2023-03-17T23:16:39.805Z,20.00
2023-03-17T23:19:08.361Z,18.63
2023-03-17T23:21:38.526Z,20.13
2023-03-17T23:24:07.864Z,19.83
2023-03-17T23:26:38.075Z,19.67
2023-03-17T23:29:07.244Z,19.60
2023-03-17T23:31:36.829Z,21.57
2023-03-17T23:34:06.665Z,21.57
2023-03-17T23:36:35.246Z,21.53
2023-03-17T23:39:05.050Z,21.10
2023-03-17T23:41:33.483Z,20.07
2023-03-17T23:44:04.239Z,19.73
2023-03-17T23:46:32.747Z,20.30
2023-03-17T23:49:01.409Z,19.57
2023-03-17T23:51:30.064Z,19.07
2023-03-17T23:53:59.181Z,21.60
2023-03-17T23:56:27.648Z,22.70
2023-03-17T23:58:56.336Z,18.17
